Alcester, SD (57001)

6:39 PM CST on February 05, 2016 (GMT -0600)
Campingfarmer | | Change Station
CLOSE
Current Station
Personal Weather Station
Location: Rock Valley, IA
Elevation: 1253 ft
Nearby Weather Stations

Elev 1253 ft 43.19 °N, 96.39 °W | Updated 10 seconds ago

Overcast
Overcast
27.5 °F
Feels Like 28 °F
N
0.0
Wind Variable Wind from WSW
Gusts 0.0 mph

Today
High -- | Low -- °F
--% Chance of Precip.
Yesterday
High -- | Low -- °F
Precip. -- in
Pressure 30.21 in
Visibility 9.0 miles
Clouds Few 4600 ft
Scattered Clouds 5500 ft
Overcast 8500 ft
Windchill 28 °F
Dew Point 22 °F
Humidity 80%
Rainfall 0.00 in
Snow Depth Not available.
7:37 AM 5:43 PM
Waning Crescent, 8% visible
METAR KLRJ 060015Z AUTO 18008KT 9SM FEW046 SCT055 OVC085 M02/M02 A3021 RMK AO2
Pressure 30.21 in
Visibility 9.0 miles
Clouds Few 4600 ft
Scattered Clouds 5500 ft
Overcast 8500 ft
Windchill 28 °F
Dew Point 22 °F
Humidity 80%
Rainfall 0.00 in
Snow Depth Not available.
7:37 AM 5:43 PM
Waning Crescent, 8% visible
METAR KLRJ 060015Z AUTO 18008KT 9SM FEW046 SCT055 OVC085 M02/M02 A3021 RMK AO2

10-Day Weather Forecast

Almanac

Astronomy

Feb. 05, 2016 Rise Set
Actual Time
Civil Twilight
Nautical Twilight
Astronomical Twilight
Moon
Length of Visible Light
Length of Day
Tomorrow will be .
, % of the Moon is Illuminated

Today's Extremes

State Highs State Lows

Community

WunderPhotos

Upload Photos

1,890,899 photos uploaded!

WunderBlog® & News

Nearby

Air Quality

  Air Quality AQ Index Pollutant
Not available.

Snow Depth

Station Depth Elevation

Earthquake Activity

City Distance Mag. Time & Date
Minimum magnitude displayed is 2.5.

Coastal Water Temperatures

Place Temperature

Stations

Nearby Weather Stations

Station Location Temp. Windchill Dew Point Humidity Wind Precip. Elev Updated Type
                   

Watches & Warnings

There are currently no watches in effect.